sensor_id;sensor_type;location;lat;lon;timestamp;pressure;altitude;pressure_sealevel;temperature;humidity
35716;BME280;21840;44.920;8.616;2023-06-14T00:00:31;99825.72;;;26.25;53.33
35716;BME280;21840;44.920;8.616;2023-06-14T00:02:57;99827.28;;;26.21;53.73
35716;BME280;21840;44.920;8.616;2023-06-14T00:05:23;99824.94;;;25.86;54.40
35716;BME280;21840;44.920;8.616;2023-06-14T00:07:49;99825.16;;;26.01;53.86
35716;BME280;21840;44.920;8.616;2023-06-14T00:10:21;99819.41;;;26.14;53.52
35716;BME280;21840;44.920;8.616;2023-06-14T00:12:47;99816.16;;;26.12;53.49
35716;BME280;21840;44.920;8.616;2023-06-14T00:15:13;99813.44;;;26.12;53.37
35716;BME280;21840;44.920;8.616;2023-06-14T00:17:38;99817.00;;;26.18;53.26
35716;BME280;21840;44.920;8.616;2023-06-14T00:20:04;99811.00;;;26.11;53.34
35716;BME280;21840;44.920;8.616;2023-06-14T00:22:33;99814.66;;;26.21;52.93
35716;BME280;21840;44.920;8.616;2023-06-14T00:24:59;99806.56;;;26.43;52.62
35716;BME280;21840;44.920;8.616;2023-06-14T00:27:25;99805.41;;;26.39;52.52
35716;BME280;21840;44.920;8.616;2023-06-14T00:29:51;99811.97;;;26.21;52.53
35716;BME280;21840;44.920;8.616;2023-06-14T00:32:18;99807.13;;;26.23;52.79
35716;BME280;21840;44.920;8.616;2023-06-14T00:34:43;99798.63;;;26.10;52.98
35716;BME280;21840;44.920;8.616;2023-06-14T00:37:09;99801.16;;;26.43;52.08
35716;BME280;21840;44.920;8.616;2023-06-14T00:39:35;99795.69;;;26.60;51.66
35716;BME280;21840;44.920;8.616;2023-06-14T00:42:00;99781.66;;;26.31;52.11
35716;BME280;21840;44.920;8.616;2023-06-14T00:44:26;99786.63;;;26.44;52.08
35716;BME280;21840;44.920;8.616;2023-06-14T00:46:51;99787.03;;;26.31;52.15
35716;BME280;21840;44.920;8.616;2023-06-14T00:49:17;99785.03;;;26.21;52.44
35716;BME280;21840;44.920;8.616;2023-06-14T00:51:44;99779.16;;;26.52;51.86
35716;BME280;21840;44.920;8.616;2023-06-14T00:54:10;99786.19;;;26.31;52.38
35716;BME280;21840;44.920;8.616;2023-06-14T00:56:37;99785.53;;;26.45;51.88
35716;BME280;21840;44.920;8.616;2023-06-14T00:59:03;99774.81;;;26.51;51.92
35716;BME280;21840;44.920;8.616;2023-06-14T01:01:32;99775.03;;;26.44;51.96
35716;BME280;21840;44.920;8.616;2023-06-14T01:04:00;99767.13;;;26.10;52.34
35716;BME280;21840;44.920;8.616;2023-06-14T01:12:07;99777.94;;;26.37;52.30
35716;BME280;21840;44.920;8.616;2023-06-14T01:14:38;99781.44;;;26.38;52.37
35716;BME280;21840;44.920;8.616;2023-06-14T01:17:04;99781.97;;;26.13;53.17
35716;BME280;21840;44.920;8.616;2023-06-14T01:19:30;99768.16;;;26.04;53.42
35716;BME280;21840;44.920;8.616;2023-06-14T01:21:57;99772.91;;;25.97;53.83
35716;BME280;21840;44.920;8.616;2023-06-14T01:24:23;99773.72;;;25.97;53.90
35716;BME280;21840;44.920;8.616;2023-06-14T01:26:57;99775.41;;;26.03;53.89
35716;BME280;21840;44.920;8.616;2023-06-14T01:29:27;99776.84;;;26.11;53.67
35716;BME280;21840;44.920;8.616;2023-06-14T01:32:01;99775.09;;;26.00;53.94
35716;BME280;21840;44.920;8.616;2023-06-14T01:34:30;99768.41;;;26.02;53.97
35716;BME280;21840;44.920;8.616;2023-06-14T01:36:56;99770.47;;;25.95;54.05
35716;BME280;21840;44.920;8.616;2023-06-14T01:39:22;99770.16;;;25.92;54.15
35716;BME280;21840;44.920;8.616;2023-06-14T01:41:49;99767.25;;;25.98;54.18
35716;BME280;21840;44.920;8.616;2023-06-14T01:44:16;99767.25;;;25.98;54.08
35716;BME280;21840;44.920;8.616;2023-06-14T01:46:43;99755.13;;;25.96;54.15
35716;BME280;21840;44.920;8.616;2023-06-14T01:49:10;99755.00;;;25.86;54.29
35716;BME280;21840;44.920;8.616;2023-06-14T01:51:36;99751.31;;;25.92;54.02
35716;BME280;21840;44.920;8.616;2023-06-14T01:54:01;99756.44;;;25.93;54.16
35716;BME280;21840;44.920;8.616;2023-06-14T01:56:27;99757.47;;;25.87;53.98
35716;BME280;21840;44.920;8.616;2023-06-14T01:58:53;99755.06;;;25.91;54.08
35716;BME280;21840;44.920;8.616;2023-06-14T02:01:20;99758.53;;;25.86;53.92
35716;BME280;21840;44.920;8.616;2023-06-14T02:03:47;99751.28;;;25.70;54.20
35716;BME280;21840;44.920;8.616;2023-06-14T02:06:15;99748.16;;;25.78;54.37
35716;BME280;21840;44.920;8.616;2023-06-14T02:08:44;99744.34;;;25.52;54.97
35716;BME280;21840;44.920;8.616;2023-06-14T02:11:10;99743.72;;;25.67;54.70
35716;BME280;21840;44.920;8.616;2023-06-14T02:13:35;99746.69;;;25.48;55.13
35716;BME280;21840;44.920;8.616;2023-06-14T02:16:01;99748.91;;;25.73;54.43
35716;BME280;21840;44.920;8.616;2023-06-14T02:18:29;99738.84;;;25.64;54.71
35716;BME280;21840;44.920;8.616;2023-06-14T02:20:55;99736.84;;;25.76;54.13
35716;BME280;21840;44.920;8.616;2023-06-14T02:23:21;99745.16;;;25.74;54.51
35716;BME280;21840;44.920;8.616;2023-06-14T02:25:46;99741.78;;;25.62;54.90
35716;BME280;21840;44.920;8.616;2023-06-14T02:28:12;99742.94;;;25.88;54.30
35716;BME280;21840;44.920;8.616;2023-06-14T02:30:38;99742.84;;;25.83;54.13
35716;BME280;21840;44.920;8.616;2023-06-14T02:33:04;99744.81;;;25.88;54.17
35716;BME280;21840;44.920;8.616;2023-06-14T02:35:31;99737.88;;;25.53;54.96
35716;BME280;21840;44.920;8.616;2023-06-14T02:37:57;99739.72;;;25.69;54.72
35716;BME280;21840;44.920;8.616;2023-06-14T02:40:23;99747.59;;;25.76;54.44
35716;BME280;21840;44.920;8.616;2023-06-14T02:42:49;99743.22;;;25.70;54.88
35716;BME280;21840;44.920;8.616;2023-06-14T02:45:16;99740.56;;;25.92;54.24
35716;BME280;21840;44.920;8.616;2023-06-14T02:47:42;99747.38;;;25.99;54.00
35716;BME280;21840;44.920;8.616;2023-06-14T02:50:08;99742.03;;;25.82;54.21
35716;BME280;21840;44.920;8.616;2023-06-14T02:52:34;99749.84;;;26.01;54.09
35716;BME280;21840;44.920;8.616;2023-06-14T02:54:59;99758.56;;;26.13;53.73
35716;BME280;21840;44.920;8.616;2023-06-14T02:57:25;99753.91;;;26.03;53.95
35716;BME280;21840;44.920;8.616;2023-06-14T02:59:51;99754.44;;;26.06;53.84
35716;BME280;21840;44.920;8.616;2023-06-14T03:02:21;99766.09;;;26.11;53.53
35716;BME280;21840;44.920;8.616;2023-06-14T03:04:47;99767.03;;;26.00;53.55
35716;BME280;21840;44.920;8.616;2023-06-14T03:07:15;99764.97;;;26.07;53.48
35716;BME280;21840;44.920;8.616;2023-06-14T03:09:46;99764.31;;;26.22;53.17
35716;BME280;21840;44.920;8.616;2023-06-14T03:12:12;99763.88;;;26.08;53.35
35716;BME280;21840;44.920;8.616;2023-06-14T03:14:39;99756.19;;;25.95;53.67
35716;BME280;21840;44.920;8.616;2023-06-14T03:17:06;99763.06;;;26.08;53.38
35716;BME280;21840;44.920;8.616;2023-06-14T03:19:34;99753.69;;;25.88;53.82
35716;BME280;21840;44.920;8.616;2023-06-14T03:22:00;99759.28;;;26.03;53.42
35716;BME280;21840;44.920;8.616;2023-06-14T03:24:28;99764.38;;;26.05;53.56
35716;BME280;21840;44.920;8.616;2023-06-14T03:26:54;99764.44;;;25.88;54.00
35716;BME280;21840;44.920;8.616;2023-06-14T03:29:21;99766.16;;;25.94;54.07
35716;BME280;21840;44.920;8.616;2023-06-14T03:32:01;99767.78;;;25.95;53.85
35716;BME280;21840;44.920;8.616;2023-06-14T03:34:34;99767.88;;;26.06;53.85
35716;BME280;21840;44.920;8.616;2023-06-14T03:37:01;99769.59;;;26.12;53.72
35716;BME280;21840;44.920;8.616;2023-06-14T03:39:27;99776.91;;;26.16;53.50
35716;BME280;21840;44.920;8.616;2023-06-14T03:41:54;99767.34;;;26.03;53.96
35716;BME280;21840;44.920;8.616;2023-06-14T03:44:20;99773.41;;;25.94;53.78
35716;BME280;21840;44.920;8.616;2023-06-14T03:46:46;99768.47;;;25.86;54.14
35716;BME280;21840;44.920;8.616;2023-06-14T03:49:12;99759.66;;;25.73;54.13
35716;BME280;21840;44.920;8.616;2023-06-14T03:51:39;99755.66;;;25.76;53.96
35716;BME280;21840;44.920;8.616;2023-06-14T03:54:05;99764.66;;;25.65;53.89
35716;BME280;21840;44.920;8.616;2023-06-14T03:56:31;99774.41;;;25.71;53.85
35716;BME280;21840;44.920;8.616;2023-06-14T03:58:57;99774.69;;;25.69;53.65
35716;BME280;21840;44.920;8.616;2023-06-14T04:01:25;99775.44;;;25.65;53.74
35716;BME280;21840;44.920;8.616;2023-06-14T04:03:57;99780.50;;;25.61;54.18
35716;BME280;21840;44.920;8.616;2023-06-14T04:06:24;99774.34;;;25.66;53.90
35716;BME280;21840;44.920;8.616;2023-06-14T04:08:57;99776.97;;;25.60;54.09
35716;BME280;21840;44.920;8.616;2023-06-14T04:11:22;99773.25;;;25.61;54.17
35716;BME280;21840;44.920;8.616;2023-06-14T04:13:48;99773.41;;;25.55;54.27
35716;BME280;21840;44.920;8.616;2023-06-14T04:16:13;99772.13;;;25.79;53.88
35716;BME280;21840;44.920;8.616;2023-06-14T04:18:39;99784.13;;;25.89;53.55
35716;BME280;21840;44.920;8.616;2023-06-14T04:21:05;99785.81;;;25.78;53.78
35716;BME280;21840;44.920;8.616;2023-06-14T04:23:31;99790.22;;;25.84;53.43
35716;BME280;21840;44.920;8.616;2023-06-14T04:25:59;99789.91;;;26.02;53.02
35716;BME280;21840;44.920;8.616;2023-06-14T04:28:27;99799.38;;;26.05;52.89
35716;BME280;21840;44.920;8.616;2023-06-14T04:30:57;99795.25;;;25.97;52.82
35716;BME280;21840;44.920;8.616;2023-06-14T04:33:28;99788.31;;;26.01;52.79
35716;BME280;21840;44.920;8.616;2023-06-14T04:35:54;99792.91;;;25.84;53.05
35716;BME280;21840;44.920;8.616;2023-06-14T04:38:22;99791.25;;;25.83;52.89
35716;BME280;21840;44.920;8.616;2023-06-14T04:40:52;99792.56;;;25.97;52.85
35716;BME280;21840;44.920;8.616;2023-06-14T04:43:19;99793.22;;;25.88;53.01
35716;BME280;21840;44.920;8.616;2023-06-14T04:45:50;99793.06;;;25.94;52.77
35716;BME280;21840;44.920;8.616;2023-06-14T04:48:17;99802.81;;;26.00;52.67
35716;BME280;21840;44.920;8.616;2023-06-14T04:50:43;99799.63;;;26.03;52.42
35716;BME280;21840;44.920;8.616;2023-06-14T04:53:09;99798.81;;;26.03;52.42
35716;BME280;21840;44.920;8.616;2023-06-14T04:55:36;99796.09;;;26.03;52.50
35716;BME280;21840;44.920;8.616;2023-06-14T04:58:04;99795.69;;;25.89;52.94
35716;BME280;21840;44.920;8.616;2023-06-14T05:00:30;99795.69;;;26.11;52.81
35716;BME280;21840;44.920;8.616;2023-06-14T05:02:56;99792.78;;;26.18;52.57
35716;BME280;21840;44.920;8.616;2023-06-14T05:05:22;99800.13;;;26.50;51.72
35716;BME280;21840;44.920;8.616;2023-06-14T05:07:49;99798.53;;;26.49;51.60
35716;BME280;21840;44.920;8.616;2023-06-14T05:10:16;99801.44;;;26.20;52.17
35716;BME280;21840;44.920;8.616;2023-06-14T05:12:41;99801.53;;;26.30;52.06
35716;BME280;21840;44.920;8.616;2023-06-14T05:15:10;99799.47;;;26.15;52.02
35716;BME280;21840;44.920;8.616;2023-06-14T05:17:35;99806.13;;;26.30;51.82
35716;BME280;21840;44.920;8.616;2023-06-14T05:20:02;99809.31;;;26.27;51.86
35716;BME280;21840;44.920;8.616;2023-06-14T05:22:28;99803.44;;;26.08;52.24
35716;BME280;21840;44.920;8.616;2023-06-14T05:24:54;99803.94;;;26.27;51.70
35716;BME280;21840;44.920;8.616;2023-06-14T05:27:19;99811.06;;;26.16;52.05
35716;BME280;21840;44.920;8.616;2023-06-14T05:29:45;99805.09;;;26.09;52.24
35716;BME280;21840;44.920;8.616;2023-06-14T05:32:10;99813.13;;;26.31;51.91
35716;BME280;21840;44.920;8.616;2023-06-14T05:34:36;99813.38;;;26.07;52.26
35716;BME280;21840;44.920;8.616;2023-06-14T05:37:01;99819.13;;;26.16;52.38
35716;BME280;21840;44.920;8.616;2023-06-14T05:39:29;99823.81;;;26.25;51.78
35716;BME280;21840;44.920;8.616;2023-06-14T05:41:55;99832.75;;;26.26;51.54
35716;BME280;21840;44.920;8.616;2023-06-14T05:44:20;99823.28;;;26.23;51.23
35716;BME280;21840;44.920;8.616;2023-06-14T05:46:46;99827.34;;;26.26;50.95
35716;BME280;21840;44.920;8.616;2023-06-14T05:49:11;99830.09;;;26.31;50.73
35716;BME280;21840;44.920;8.616;2023-06-14T05:51:37;99820.94;;;26.32;50.75
35716;BME280;21840;44.920;8.616;2023-06-14T05:54:02;99828.66;;;26.23;51.14
35716;BME280;21840;44.920;8.616;2023-06-14T05:56:28;99830.00;;;26.21;50.94
35716;BME280;21840;44.920;8.616;2023-06-14T05:58:54;99831.16;;;26.30;51.13
35716;BME280;21840;44.920;8.616;2023-06-14T06:01:19;99837.78;;;26.44;51.17
35716;BME280;21840;44.920;8.616;2023-06-14T06:03:45;99839.91;;;26.42;51.07
35716;BME280;21840;44.920;8.616;2023-06-14T06:06:12;99840.94;;;26.14;51.81
35716;BME280;21840;44.920;8.616;2023-06-14T06:08:37;99841.75;;;26.15;51.99
35716;BME280;21840;44.920;8.616;2023-06-14T06:11:03;99837.50;;;26.19;52.07
35716;BME280;21840;44.920;8.616;2023-06-14T06:13:29;99844.88;;;26.29;51.96
35716;BME280;21840;44.920;8.616;2023-06-14T06:15:54;99840.25;;;26.24;51.87
35716;BME280;21840;44.920;8.616;2023-06-14T06:18:21;99845.19;;;26.10;52.04
35716;BME280;21840;44.920;8.616;2023-06-14T06:20:47;99849.50;;;26.11;52.58
35716;BME280;21840;44.920;8.616;2023-06-14T06:23:12;99846.88;;;26.16;52.65
35716;BME280;21840;44.920;8.616;2023-06-14T06:25:38;99844.66;;;26.13;52.88
35716;BME280;21840;44.920;8.616;2023-06-14T06:28:03;99857.19;;;26.24;53.02
35716;BME280;21840;44.920;8.616;2023-06-14T06:30:29;99850.88;;;26.14;52.93
35716;BME280;21840;44.920;8.616;2023-06-14T06:32:55;99854.13;;;26.16;52.86
35716;BME280;21840;44.920;8.616;2023-06-14T06:35:23;99864.00;;;25.71;53.83
35716;BME280;21840;44.920;8.616;2023-06-14T06:37:49;99858.34;;;26.07;53.48
35716;BME280;21840;44.920;8.616;2023-06-14T06:40:14;99864.59;;;26.12;53.24
35716;BME280;21840;44.920;8.616;2023-06-14T06:42:43;99864.88;;;26.16;53.19
35716;BME280;21840;44.920;8.616;2023-06-14T06:45:11;99857.88;;;26.15;53.24
35716;BME280;21840;44.920;8.616;2023-06-14T06:47:39;99870.34;;;25.99;53.70
35716;BME280;21840;44.920;8.616;2023-06-14T06:50:05;99882.97;;;25.98;53.12
35716;BME280;21840;44.920;8.616;2023-06-14T06:52:33;99878.00;;;25.90;53.25
35716;BME280;21840;44.920;8.616;2023-06-14T06:54:58;99880.69;;;25.90;53.70
35716;BME280;21840;44.920;8.616;2023-06-14T06:57:24;99880.63;;;25.68;53.09
35716;BME280;21840;44.920;8.616;2023-06-14T06:59:49;99878.66;;;25.97;53.08
35716;BME280;21840;44.920;8.616;2023-06-14T07:02:18;99887.53;;;25.98;52.61
35716;BME280;21840;44.920;8.616;2023-06-14T07:04:44;99881.41;;;26.02;52.60
35716;BME280;21840;44.920;8.616;2023-06-14T07:07:09;99885.97;;;26.02;52.57
35716;BME280;21840;44.920;8.616;2023-06-14T07:09:35;99888.09;;;26.00;52.36
35716;BME280;21840;44.920;8.616;2023-06-14T07:12:01;99887.31;;;26.21;51.61
35716;BME280;21840;44.920;8.616;2023-06-14T07:14:29;99888.44;;;26.47;50.96
35716;BME280;21840;44.920;8.616;2023-06-14T07:16:55;99894.06;;;26.68;50.00
35716;BME280;21840;44.920;8.616;2023-06-14T07:19:21;99907.47;;;27.12;48.69
35716;BME280;21840;44.920;8.616;2023-06-14T07:21:46;99908.19;;;27.02;48.75
35716;BME280;21840;44.920;8.616;2023-06-14T07:24:12;99906.56;;;27.28;48.33
35716;BME280;21840;44.920;8.616;2023-06-14T07:26:37;99907.88;;;27.58;47.71
35716;BME280;21840;44.920;8.616;2023-06-14T07:29:03;99908.50;;;27.70;46.91
35716;BME280;21840;44.920;8.616;2023-06-14T07:31:28;99903.94;;;28.13;46.13
35716;BME280;21840;44.920;8.616;2023-06-14T07:33:54;99911.38;;;27.91;46.36
35716;BME280;21840;44.920;8.616;2023-06-14T07:36:19;99915.56;;;28.14;45.77
35716;BME280;21840;44.920;8.616;2023-06-14T07:38:46;99919.75;;;27.94;46.11
35716;BME280;21840;44.920;8.616;2023-06-14T07:41:11;99920.28;;;28.44;45.43
35716;BME280;21840;44.920;8.616;2023-06-14T07:43:37;99923.03;;;28.49;44.88
35716;BME280;21840;44.920;8.616;2023-06-14T07:46:03;99927.34;;;28.50;44.75
35716;BME280;21840;44.920;8.616;2023-06-14T07:48:28;99929.16;;;28.34;44.58
35716;BME280;21840;44.920;8.616;2023-06-14T07:50:54;99929.72;;;28.42;45.16
35716;BME280;21840;44.920;8.616;2023-06-14T07:53:20;99933.91;;;28.12;45.56
35716;BME280;21840;44.920;8.616;2023-06-14T07:55:48;99926.16;;;28.26;45.19
35716;BME280;21840;44.920;8.616;2023-06-14T07:58:15;99919.66;;;28.27;44.95
35716;BME280;21840;44.920;8.616;2023-06-14T08:00:41;99924.56;;;28.35;45.37
35716;BME280;21840;44.920;8.616;2023-06-14T08:03:06;99919.97;;;28.40;45.60
35716;BME280;21840;44.920;8.616;2023-06-14T08:05:33;99925.19;;;28.47;45.18
35716;BME280;21840;44.920;8.616;2023-06-14T08:07:58;99924.66;;;28.50;45.10
35716;BME280;21840;44.920;8.616;2023-06-14T08:10:24;99923.19;;;28.27;45.00
35716;BME280;21840;44.920;8.616;2023-06-14T08:12:49;99930.50;;;28.37;44.88
35716;BME280;21840;44.920;8.616;2023-06-14T08:15:18;99927.22;;;28.25;44.86
35716;BME280;21840;44.920;8.616;2023-06-14T08:17:44;99931.28;;;28.27;44.83
35716;BME280;21840;44.920;8.616;2023-06-14T08:20:10;99933.91;;;28.75;44.28
35716;BME280;21840;44.920;8.616;2023-06-14T08:22:36;99932.38;;;29.04;44.11
35716;BME280;21840;44.920;8.616;2023-06-14T08:25:03;99939.72;;;29.35;42.94
35716;BME280;21840;44.920;8.616;2023-06-14T08:27:30;99933.53;;;29.44;42.69
35716;BME280;21840;44.920;8.616;2023-06-14T08:29:55;99930.81;;;29.34;42.74
35716;BME280;21840;44.920;8.616;2023-06-14T08:32:21;99938.38;;;29.22;42.49
35716;BME280;21840;44.920;8.616;2023-06-14T08:34:50;99929.47;;;29.37;42.53
35716;BME280;21840;44.920;8.616;2023-06-14T08:37:16;99932.16;;;29.62;41.67
35716;BME280;21840;44.920;8.616;2023-06-14T08:39:41;99949.22;;;29.53;41.63
35716;BME280;21840;44.920;8.616;2023-06-14T08:42:07;99946.50;;;29.53;41.74
35716;BME280;21840;44.920;8.616;2023-06-14T08:44:34;99944.06;;;29.92;40.77
35716;BME280;21840;44.920;8.616;2023-06-14T08:47:00;99946.47;;;30.09;40.52
35716;BME280;21840;44.920;8.616;2023-06-14T08:49:26;99952.25;;;30.67;39.48
35716;BME280;21840;44.920;8.616;2023-06-14T08:52:00;99950.03;;;30.74;39.30
35716;BME280;21840;44.920;8.616;2023-06-14T08:54:29;99952.75;;;30.74;39.20
35716;BME280;21840;44.920;8.616;2023-06-14T08:57:02;99946.47;;;30.89;39.11
35716;BME280;21840;44.920;8.616;2023-06-14T08:59:29;99951.56;;;31.46;38.07
35716;BME280;21840;44.920;8.616;2023-06-14T09:01:56;99952.91;;;31.04;38.19
35716;BME280;21840;44.920;8.616;2023-06-14T09:04:23;99956.47;;;30.94;38.23
35716;BME280;21840;44.920;8.616;2023-06-14T09:06:49;99950.28;;;31.33;38.00
35716;BME280;21840;44.920;8.616;2023-06-14T09:09:22;99955.34;;;31.00;38.15
35716;BME280;21840;44.920;8.616;2023-06-14T09:11:51;99956.41;;;31.04;37.97
35716;BME280;21840;44.920;8.616;2023-06-14T09:14:22;99954.63;;;30.79;38.15
35716;BME280;21840;44.920;8.616;2023-06-14T09:16:52;99942.66;;;31.30;37.85
35716;BME280;21840;44.920;8.616;2023-06-14T09:19:24;99953.03;;;31.28;37.69
35716;BME280;21840;44.920;8.616;2023-06-14T09:21:50;99947.22;;;31.00;38.10
35716;BME280;21840;44.920;8.616;2023-06-14T09:24:18;99955.34;;;31.05;38.21
35716;BME280;21840;44.920;8.616;2023-06-14T09:26:47;99955.19;;;31.26;37.80
35716;BME280;21840;44.920;8.616;2023-06-14T09:29:12;99958.63;;;31.36;37.49
35716;BME280;21840;44.920;8.616;2023-06-14T09:31:38;99961.31;;;31.02;37.65
35716;BME280;21840;44.920;8.616;2023-06-14T09:34:05;99957.22;;;31.05;37.13
35716;BME280;21840;44.920;8.616;2023-06-14T09:36:31;99964.38;;;30.90;38.64
35716;BME280;21840;44.920;8.616;2023-06-14T09:38:59;99966.81;;;30.87;38.31
35716;BME280;21840;44.920;8.616;2023-06-14T09:44:02;99967.88;;;30.96;38.68
35716;BME280;21840;44.920;8.616;2023-06-14T09:46:31;99969.66;;;30.56;38.89
35716;BME280;21840;44.920;8.616;2023-06-14T09:48:57;99963.47;;;30.45;39.28
35716;BME280;21840;44.920;8.616;2023-06-14T09:51:23;99964.47;;;30.60;38.82
35716;BME280;21840;44.920;8.616;2023-06-14T09:53:49;99965.59;;;30.53;38.75
35716;BME280;21840;44.920;8.616;2023-06-14T09:56:37;99959.28;;;30.73;38.57
35716;BME280;21840;44.920;8.616;2023-06-14T09:59:05;99968.56;;;30.52;38.47
35716;BME280;21840;44.920;8.616;2023-06-14T10:01:35;99968.50;;;30.67;38.30
35716;BME280;21840;44.920;8.616;2023-06-14T10:04:06;99966.59;;;30.73;38.26
35716;BME280;21840;44.920;8.616;2023-06-14T10:06:36;99962.69;;;31.00;37.85
35716;BME280;21840;44.920;8.616;2023-06-14T10:09:04;99959.63;;;31.11;37.79
35716;BME280;21840;44.920;8.616;2023-06-14T10:11:31;99960.63;;;31.26;38.29
35716;BME280;21840;44.920;8.616;2023-06-14T10:13:58;99958.25;;;31.14;37.92
35716;BME280;21840;44.920;8.616;2023-06-14T10:16:31;99962.88;;;31.13;37.84
35716;BME280;21840;44.920;8.616;2023-06-14T10:19:00;99963.00;;;30.93;37.64
35716;BME280;21840;44.920;8.616;2023-06-14T10:21:46;99957.00;;;31.01;37.69
35716;BME280;21840;44.920;8.616;2023-06-14T10:24:17;99961.06;;;30.99;37.20
35716;BME280;21840;44.920;8.616;2023-06-14T10:26:52;99948.63;;;31.32;36.79
35716;BME280;21840;44.920;8.616;2023-06-14T10:29:17;99953.13;;;31.07;37.65
35716;BME280;21840;44.920;8.616;2023-06-14T10:31:47;99951.47;;;31.16;36.89
35716;BME280;21840;44.920;8.616;2023-06-14T10:34:23;99950.31;;;31.23;37.38
35716;BME280;21840;44.920;8.616;2023-06-14T10:37:06;99944.84;;;31.33;37.32
35716;BME280;21840;44.920;8.616;2023-06-14T10:39:41;99945.56;;;31.49;37.04
35716;BME280;21840;44.920;8.616;2023-06-14T10:42:07;99946.44;;;31.34;37.20
35716;BME280;21840;44.920;8.616;2023-06-14T10:44:37;99959.06;;;31.14;37.35
35716;BME280;21840;44.920;8.616;2023-06-14T10:47:07;99954.47;;;31.10;37.40
35716;BME280;21840;44.920;8.616;2023-06-14T10:49:39;99948.38;;;30.89;38.00
35716;BME280;21840;44.920;8.616;2023-06-14T10:52:09;99948.78;;;30.57;38.48
35716;BME280;21840;44.920;8.616;2023-06-14T10:54:37;99953.25;;;30.82;38.04
35716;BME280;21840;44.920;8.616;2023-06-14T10:57:06;99955.66;;;30.99;37.91
35716;BME280;21840;44.920;8.616;2023-06-14T10:59:32;99952.69;;;31.34;37.02
35716;BME280;21840;44.920;8.616;2023-06-14T11:02:20;99957.13;;;31.20;37.40
35716;BME280;21840;44.920;8.616;2023-06-14T11:04:52;99957.44;;;31.13;37.54
35716;BME280;21840;44.920;8.616;2023-06-14T11:13:02;99963.25;;;30.97;38.04
35716;BME280;21840;44.920;8.616;2023-06-14T11:15:31;99951.66;;;30.86;38.13
35716;BME280;21840;44.920;8.616;2023-06-14T11:18:00;99956.25;;;30.80;38.28
35716;BME280;21840;44.920;8.616;2023-06-14T11:20:27;99959.75;;;30.91;37.96
35716;BME280;21840;44.920;8.616;2023-06-14T11:22:53;99958.63;;;30.97;37.98
35716;BME280;21840;44.920;8.616;2023-06-14T11:25:19;99949.78;;;31.26;37.62
35716;BME280;21840;44.920;8.616;2023-06-14T11:27:45;99957.31;;;31.34;37.55
35716;BME280;21840;44.920;8.616;2023-06-14T11:30:12;99946.97;;;31.41;37.34
35716;BME280;21840;44.920;8.616;2023-06-14T11:32:38;99956.13;;;31.50;37.05
35716;BME280;21840;44.920;8.616;2023-06-14T11:35:05;99952.94;;;31.43;37.46
35716;BME280;21840;44.920;8.616;2023-06-14T11:37:31;99948.50;;;31.81;36.58
35716;BME280;21840;44.920;8.616;2023-06-14T11:40:01;99950.13;;;32.12;36.15
35716;BME280;21840;44.920;8.616;2023-06-14T11:42:29;99943.75;;;32.51;35.60
35716;BME280;21840;44.920;8.616;2023-06-14T11:44:55;99944.69;;;32.60;35.64
35716;BME280;21840;44.920;8.616;2023-06-14T11:47:22;99942.09;;;32.93;34.54
35716;BME280;21840;44.920;8.616;2023-06-14T11:49:48;99939.97;;;33.08;34.53
35716;BME280;21840;44.920;8.616;2023-06-14T11:52:14;99943.78;;;32.88;34.77
35716;BME280;21840;44.920;8.616;2023-06-14T11:54:40;99939.63;;;33.15;34.38
35716;BME280;21840;44.920;8.616;2023-06-14T11:57:07;99933.50;;;32.85;34.54
35716;BME280;21840;44.920;8.616;2023-06-14T11:59:44;99934.88;;;32.83;34.76
35716;BME280;21840;44.920;8.616;2023-06-14T12:02:13;99937.38;;;33.17;34.15
35716;BME280;21840;44.920;8.616;2023-06-14T12:04:41;99942.75;;;33.22;34.07
35716;BME280;21840;44.920;8.616;2023-06-14T12:07:14;99933.31;;;33.34;33.89
35716;BME280;21840;44.920;8.616;2023-06-14T12:12:25;99926.97;;;33.57;33.16
35716;BME280;21840;44.920;8.616;2023-06-14T12:14:51;99921.66;;;33.14;33.94
35716;BME280;21840;44.920;8.616;2023-06-14T12:17:18;99914.28;;;33.34;33.75
35716;BME280;21840;44.920;8.616;2023-06-14T12:19:45;99918.31;;;33.36;32.58
35716;BME280;21840;44.920;8.616;2023-06-14T12:22:14;99924.47;;;33.61;32.15
35716;BME280;21840;44.920;8.616;2023-06-14T12:24:43;99917.03;;;33.80;31.77
35716;BME280;21840;44.920;8.616;2023-06-14T12:27:09;99915.66;;;34.10;31.65
35716;BME280;21840;44.920;8.616;2023-06-14T12:29:37;99914.44;;;34.03;31.80
35716;BME280;21840;44.920;8.616;2023-06-14T12:32:02;99914.00;;;33.68;32.30
35716;BME280;21840;44.920;8.616;2023-06-14T12:34:28;99916.88;;;34.18;31.95
35716;BME280;21840;44.920;8.616;2023-06-14T12:36:54;99916.06;;;34.18;31.67
35716;BME280;21840;44.920;8.616;2023-06-14T12:39:20;99915.97;;;34.09;31.78
35716;BME280;21840;44.920;8.616;2023-06-14T12:41:46;99912.59;;;34.40;31.70
35716;BME280;21840;44.920;8.616;2023-06-14T12:44:12;99911.69;;;34.44;31.27
35716;BME280;21840;44.920;8.616;2023-06-14T12:46:41;99907.91;;;34.18;31.94
35716;BME280;21840;44.920;8.616;2023-06-14T12:49:09;99914.00;;;33.68;32.55
35716;BME280;21840;44.920;8.616;2023-06-14T12:51:35;99907.59;;;34.33;31.94
35716;BME280;21840;44.920;8.616;2023-06-14T12:54:01;99905.53;;;33.97;32.02
35716;BME280;21840;44.920;8.616;2023-06-14T12:56:29;99906.81;;;33.58;32.55
35716;BME280;21840;44.920;8.616;2023-06-14T12:58:55;99911.25;;;33.35;32.63
35716;BME280;21840;44.920;8.616;2023-06-14T13:01:20;99905.81;;;33.35;32.95
35716;BME280;21840;44.920;8.616;2023-06-14T13:03:46;99908.31;;;33.64;32.46
35716;BME280;21840;44.920;8.616;2023-06-14T13:06:13;99895.59;;;33.60;33.05
35716;BME280;21840;44.920;8.616;2023-06-14T13:08:39;99890.13;;;33.92;32.31
35716;BME280;21840;44.920;8.616;2023-06-14T13:11:04;99894.84;;;34.01;31.99
35716;BME280;21840;44.920;8.616;2023-06-14T13:13:30;99891.41;;;33.95;31.01
35716;BME280;21840;44.920;8.616;2023-06-14T13:15:56;99886.66;;;33.87;30.84